Time;durP1;ratioP1;P1;durP2;ratioP2;P2;SDS_P1;SDS_P2;PMS_P1;PMS_P2;Temp;Humidity;BMP_temperature;BMP_pressure;BME280_temperature;BME280_humidity;BME280_pressure;Samples;Min_cycle;Max_cycle;Signal;HPM_P1;HPM_P2
2021/12/04 00:01:22;;;;;;;3.58;2.50;;;;;;;;;;5012416;28;20479;-65
2021/12/04 00:03:49;;;;;;;3.17;2.10;;;;;;;;;;5012058;28;20095;-65
2021/12/04 00:06:27;;;;;;;4.65;2.53;;;;;;;;;;5012469;28;20058;-66
2021/12/04 00:08:57;;;;;;;3.85;2.35;;;;;;;;;;5012302;28;20050;-66
2021/12/04 00:11:23;;;;;;;4.60;3.13;;;;;;;;;;5019498;28;20100;-65
2021/12/04 00:13:50;;;;;;;4.05;2.40;;;;;;;;;;5023626;28;20050;-65
2021/12/04 00:16:17;;;;;;;4.03;3.00;;;;;;;;;;5032005;28;20081;-65
2021/12/04 00:18:43;;;;;;;4.75;2.33;;;;;;;;;;5031753;28;20056;-66
2021/12/04 00:21:10;;;;;;;3.70;2.30;;;;;;;;;;5032232;28;20084;-65
2021/12/04 00:23:37;;;;;;;3.13;2.65;;;;;;;;;;5031628;28;20127;-66
2021/12/04 00:26:06;;;;;;;2.80;2.10;;;;;;;;;;5029944;28;20061;-65
2021/12/04 00:28:33;;;;;;;5.22;2.17;;;;;;;;;;5031780;28;20488;-65
2021/12/04 00:31:05;;;;;;;4.53;2.78;;;;;;;;;;5031523;28;20053;-65
2021/12/04 00:33:33;;;;;;;3.30;2.55;;;;;;;;;;5031725;28;20107;-65
2021/12/04 00:36:03;;;;;;;6.35;2.90;;;;;;;;;;5031451;28;20072;-66
2021/12/04 00:49:30;;;;;;;6.57;2.42;;;;;;;;;;5011854;28;20058;-66
2021/12/04 00:51:58;;;;;;;2.72;2.47;;;;;;;;;;5011652;28;20050;-66
2021/12/04 00:54:26;;;;;;;3.53;2.65;;;;;;;;;;5011693;28;20497;-66
2021/12/04 00:56:55;;;;;;;3.72;2.47;;;;;;;;;;5011485;28;20046;-65
2021/12/04 00:59:21;;;;;;;3.50;1.92;;;;;;;;;;5031045;28;20053;-65
2021/12/04 01:01:48;;;;;;;3.38;2.45;;;;;;;;;;5031311;28;20111;-66
2021/12/04 01:04:18;;;;;;;3.80;2.97;;;;;;;;;;5031227;28;20046;-66
2021/12/04 01:06:45;;;;;;;3.78;2.13;;;;;;;;;;5031124;28;20053;-65
2021/12/04 01:09:13;;;;;;;6.10;2.58;;;;;;;;;;5031266;28;20060;-66
2021/12/04 01:11:41;;;;;;;3.40;2.30;;;;;;;;;;5030240;28;20050;-66
2021/12/04 01:14:08;;;;;;;5.20;2.80;;;;;;;;;;5011583;28;20049;-65
2021/12/04 01:16:35;;;;;;;3.80;2.65;;;;;;;;;;5010657;28;20054;-65
2021/12/04 01:19:02;;;;;;;3.13;2.35;;;;;;;;;;5011676;28;20108;-66
2021/12/04 01:21:28;;;;;;;5.45;2.65;;;;;;;;;;5011556;28;20424;-66
2021/12/04 01:23:55;;;;;;;5.40;2.80;;;;;;;;;;5011459;28;20046;-66
2021/12/04 01:26:23;;;;;;;2.65;2.30;;;;;;;;;;5011314;28;20543;-66
2021/12/04 01:28:50;;;;;;;4.15;2.25;;;;;;;;;;5011218;28;20049;-65
2021/12/04 01:31:17;;;;;;;2.97;2.28;;;;;;;;;;5011524;28;20054;-65
2021/12/04 01:33:44;;;;;;;3.58;2.55;;;;;;;;;;5011244;28;20049;-66
2021/12/04 01:36:11;;;;;;;3.05;2.40;;;;;;;;;;5011793;28;20489;-65
2021/12/04 01:38:37;;;;;;;4.13;2.47;;;;;;;;;;5014971;28;20054;-66
2021/12/04 01:41:04;;;;;;;3.95;2.42;;;;;;;;;;5022266;28;20126;-65
2021/12/04 01:43:31;;;;;;;4.90;2.50;;;;;;;;;;5034454;28;20549;-65
2021/12/04 01:45:57;;;;;;;4.97;2.50;;;;;;;;;;5034234;28;20105;-65
2021/12/04 01:48:24;;;;;;;2.35;2.08;;;;;;;;;;5034475;28;20538;-66
2021/12/04 01:50:55;;;;;;;5.07;2.35;;;;;;;;;;5034467;28;20565;-65
2021/12/04 01:53:23;;;;;;;2.90;2.15;;;;;;;;;;5034467;28;20046;-65
2021/12/04 01:55:54;;;;;;;2.78;2.10;;;;;;;;;;5019762;28;20107;-66
2021/12/04 01:58:22;;;;;;;3.22;2.20;;;;;;;;;;5014826;28;20046;-65
2021/12/04 02:00:49;;;;;;;4.10;2.72;;;;;;;;;;5014411;28;20061;-66
2021/12/04 02:03:18;;;;;;;3.00;2.10;;;;;;;;;;5013148;28;20069;-66
2021/12/04 02:05:45;;;;;;;3.80;1.98;;;;;;;;;;5014459;28;20049;-66
2021/12/04 02:08:17;;;;;;;6.20;2.47;;;;;;;;;;5023250;28;20056;-66
2021/12/04 02:10:44;;;;;;;3.72;2.45;;;;;;;;;;5033998;28;20053;-66
2021/12/04 02:13:11;;;;;;;3.65;2.63;;;;;;;;;;5033891;28;20053;-66
2021/12/04 02:15:38;;;;;;;7.15;3.53;;;;;;;;;;5033904;28;20057;-66
2021/12/04 02:18:06;;;;;;;5.72;2.70;;;;;;;;;;5033759;28;20132;-66
2021/12/04 02:20:34;;;;;;;4.68;2.60;;;;;;;;;;5033735;28;20079;-66
2021/12/04 02:23:02;;;;;;;5.05;2.60;;;;;;;;;;5033605;28;20060;-66
2021/12/04 02:25:29;;;;;;;4.28;2.83;;;;;;;;;;5033753;28;20049;-66
2021/12/04 02:27:56;;;;;;;4.47;3.28;;;;;;;;;;5033610;28;20057;-66
2021/12/04 02:30:25;;;;;;;4.93;3.38;;;;;;;;;;5033979;28;20554;-66
2021/12/04 02:32:51;;;;;;;7.45;3.15;;;;;;;;;;5033174;28;20050;-66
2021/12/04 02:35:19;;;;;;;5.22;3.00;;;;;;;;;;5033595;28;20054;-66
2021/12/04 02:37:46;;;;;;;6.20;3.53;;;;;;;;;;5033492;28;20073;-66
2021/12/04 02:40:21;;;;;;;6.00;3.58;;;;;;;;;;5033433;28;20103;-66
2021/12/04 02:42:49;;;;;;;4.65;3.65;;;;;;;;;;5033344;28;20057;-66
2021/12/04 02:45:16;;;;;;;5.22;3.97;;;;;;;;;;5031670;28;20103;-66
2021/12/04 02:47:43;;;;;;;5.72;4.20;;;;;;;;;;5012980;28;20092;-66
2021/12/04 02:50:11;;;;;;;5.03;3.72;;;;;;;;;;5013457;28;20489;-66
2021/12/04 02:52:38;;;;;;;6.30;3.65;;;;;;;;;;5013422;28;20368;-66
2021/12/04 02:55:06;;;;;;;6.45;3.78;;;;;;;;;;5013140;28;20570;-66
2021/12/04 02:57:35;;;;;;;7.13;4.82;;;;;;;;;;5013561;28;20050;-66
2021/12/04 03:00:03;;;;;;;7.20;4.43;;;;;;;;;;5013344;28;20053;-66
2021/12/04 03:02:30;;;;;;;5.13;4.47;;;;;;;;;;5013150;28;20096;-66
2021/12/04 03:04:59;;;;;;;6.75;4.65;;;;;;;;;;5013224;28;20430;-66
2021/12/04 03:07:26;;;;;;;11.80;5.18;;;;;;;;;;5013309;28;20049;-66
2021/12/04 03:09:53;;;;;;;7.63;4.85;;;;;;;;;;5013454;28;20049;-66
2021/12/04 03:12:23;;;;;;;7.57;4.95;;;;;;;;;;5013048;28;20050;-66
2021/12/04 03:14:50;;;;;;;6.20;4.95;;;;;;;;;;5027575;28;20129;-66
2021/12/04 03:17:20;;;;;;;8.07;5.53;;;;;;;;;;5032739;28;20103;-66
2021/12/04 03:19:47;;;;;;;9.88;4.97;;;;;;;;;;5032759;28;20049;-66
2021/12/04 03:22:15;;;;;;;6.38;4.93;;;;;;;;;;5032795;28;20103;-66
2021/12/04 03:24:43;;;;;;;6.93;4.97;;;;;;;;;;5032325;28;20463;-66
2021/12/04 03:27:10;;;;;;;9.32;5.82;;;;;;;;;;5032461;28;20488;-65
2021/12/04 03:29:46;;;;;;;8.00;5.97;;;;;;;;;;5032479;28;20463;-65
2021/12/04 03:42:49;;;;;;;8.73;6.07;;;;;;;;;;5032197;28;20107;-66
2021/12/04 03:45:16;;;;;;;11.57;6.75;;;;;;;;;;5032248;28;20045;-66
2021/12/04 03:47:46;;;;;;;10.55;6.47;;;;;;;;;;5032158;28;20100;-66
2021/12/04 03:50:15;;;;;;;10.13;6.35;;;;;;;;;;5032389;28;20060;-66
2021/12/04 03:52:42;;;;;;;11.48;6.15;;;;;;;;;;5031965;28;20496;-66
2021/12/04 03:55:09;;;;;;;10.30;6.35;;;;;;;;;;5032164;28;20100;-66
2021/12/04 03:57:44;;;;;;;11.52;7.18;;;;;;;;;;5032022;28;20114;-66
2021/12/04 04:00:12;;;;;;;10.55;6.38;;;;;;;;;;5032543;28;20472;-65
2021/12/04 04:02:39;;;;;;;9.40;6.28;;;;;;;;;;5023825;28;20469;-65
2021/12/04 04:05:06;;;;;;;12.13;7.13;;;;;;;;;;5012135;28;20210;-65
2021/12/04 04:07:33;;;;;;;13.20;6.80;;;;;;;;;;5011193;28;20053;-65
2021/12/04 04:10:00;;;;;;;9.70;5.82;;;;;;;;;;5022821;28;20570;-65
2021/12/04 04:12:26;;;;;;;9.90;5.32;;;;;;;;;;5031904;28;20211;-65
2021/12/04 04:14:53;;;;;;;11.00;6.93;;;;;;;;;;5031663;28;20049;-65
2021/12/04 04:17:19;;;;;;;7.72;5.82;;;;;;;;;;5031984;28;20049;-65
2021/12/04 04:19:46;;;;;;;9.05;6.15;;;;;;;;;;5031769;28;20054;-65
2021/12/04 04:22:13;;;;;;;9.88;7.10;;;;;;;;;;5031880;28;20049;-65
2021/12/04 04:24:39;;;;;;;13.98;6.90;;;;;;;;;;5031335;28;20467;-65
2021/12/04 04:27:06;;;;;;;9.23;6.13;;;;;;;;;;5032023;28;20053;-65
2021/12/04 04:29:33;;;;;;;8.45;5.85;;;;;;;;;;5031391;28;20053;-65
2021/12/04 04:32:00;;;;;;;10.82;6.55;;;;;;;;;;5031444;28;20045;-65
2021/12/04 04:34:35;;;;;;;10.05;5.85;;;;;;;;;;5031427;28;20550;-65
2021/12/04 04:37:31;;;;;;;10.35;6.53;;;;;;;;;;5027579;28;20045;-65
2021/12/04 04:59:39;;;;;;;9.15;6.55;;;;;;;;;;5011610;28;20050;-65
2021/12/04 05:13:00;;;;;;;11.75;5.35;;;;;;;;;;5033806;28;20428;-66
2021/12/04 05:15:56;;;;;;;8.88;5.90;;;;;;;;;;5035198;28;20045;-66
2021/12/04 05:21:04;;;;;;;8.85;5.75;;;;;;;;;;5014003;28;20508;-66
2021/12/04 05:23:42;;;;;;;10.55;5.40;;;;;;;;;;5015100;28;20053;-66
2021/12/04 05:26:11;;;;;;;8.60;5.72;;;;;;;;;;5015078;28;20092;-65
2021/12/04 05:28:37;;;;;;;7.15;5.40;;;;;;;;;;5014963;28;20108;-65
2021/12/04 05:31:04;;;;;;;8.93;5.95;;;;;;;;;;5015148;28;20689;-65
2021/12/04 05:33:31;;;;;;;10.00;5.68;;;;;;;;;;5013809;28;20050;-65
2021/12/04 05:35:58;;;;;;;8.00;5.47;;;;;;;;;;5014815;28;20046;-66
2021/12/04 05:38:25;;;;;;;7.85;5.55;;;;;;;;;;5014785;28;20137;-66
2021/12/04 05:40:52;;;;;;;8.23;5.45;;;;;;;;;;5014846;28;20057;-66
2021/12/04 05:43:22;;;;;;;9.60;6.05;;;;;;;;;;5015009;28;20112;-66
2021/12/04 05:46:08;;;;;;;8.57;5.88;;;;;;;;;;5020061;28;20041;-66
2021/12/04 05:53:57;;;;;;;9.80;5.80;;;;;;;;;;4994874;28;20106;-66
2021/12/04 05:56:24;;;;;;;12.32;6.75;;;;;;;;;;4994989;28;20042;-65
2021/12/04 05:58:51;;;;;;;8.27;5.35;;;;;;;;;;4994894;28;20055;-65
2021/12/04 06:01:19;;;;;;;9.35;6.40;;;;;;;;;;5019884;28;20058;-65
2021/12/04 06:03:46;;;;;;;8.07;5.25;;;;;;;;;;5014249;28;20136;-66
2021/12/04 06:06:13;;;;;;;7.60;5.63;;;;;;;;;;5014209;28;20042;-66
2021/12/04 06:08:41;;;;;;;9.43;5.47;;;;;;;;;;5014114;28;20053;-65
2021/12/04 06:11:08;;;;;;;9.50;6.05;;;;;;;;;;5014554;28;20045;-66
2021/12/04 06:13:35;;;;;;;7.43;5.70;;;;;;;;;;5014235;28;20054;-65
2021/12/04 06:16:02;;;;;;;8.95;6.00;;;;;;;;;;5014095;28;20124;-65
2021/12/04 06:18:29;;;;;;;10.00;5.97;;;;;;;;;;5014081;28;20421;-65
2021/12/04 06:23:41;;;;;;;9.98;6.28;;;;;;;;;;5014167;28;20058;-66
2021/12/04 06:26:07;;;;;;;10.00;6.03;;;;;;;;;;5013849;28;20050;-66
2021/12/04 06:28:35;;;;;;;9.52;5.90;;;;;;;;;;5013984;28;20519;-66
2021/12/04 06:31:02;;;;;;;9.48;5.65;;;;;;;;;;5014068;28;20062;-65
2021/12/04 06:33:29;;;;;;;9.70;6.03;;;;;;;;;;5013889;28;20058;-66
2021/12/04 06:35:56;;;;;;;10.35;6.25;;;;;;;;;;5013681;28;20050;-66
2021/12/04 06:38:22;;;;;;;11.20;6.70;;;;;;;;;;5013737;28;20558;-65
2021/12/04 06:40:50;;;;;;;14.65;6.22;;;;;;;;;;5013685;28;20054;-65
2021/12/04 06:43:17;;;;;;;11.55;5.97;;;;;;;;;;5012494;28;20046;-65
2021/12/04 06:45:47;;;;;;;9.77;5.72;;;;;;;;;;5013431;28;20046;-66
2021/12/04 06:48:20;;;;;;;9.23;6.20;;;;;;;;;;5013726;28;20061;-66
2021/12/04 06:50:52;;;;;;;8.00;5.97;;;;;;;;;;5013285;28;20054;-66
2021/12/04 06:55:47;;;;;;;10.88;6.68;;;;;;;;;;5013208;28;20096;-65
2021/12/04 06:58:14;;;;;;;9.63;6.10;;;;;;;;;;5013581;28;20053;-65
2021/12/04 07:00:40;;;;;;;9.93;6.72;;;;;;;;;;5013261;28;20054;-65
2021/12/04 07:03:07;;;;;;;11.68;6.25;;;;;;;;;;5013178;28;20476;-66
2021/12/04 07:05:34;;;;;;;9.40;6.45;;;;;;;;;;5013041;28;20050;-65
2021/12/04 07:08:01;;;;;;;9.73;6.30;;;;;;;;;;5013215;28;20103;-66
2021/12/04 07:10:28;;;;;;;10.73;5.78;;;;;;;;;;5013452;28;20501;-66
2021/12/04 07:12:54;;;;;;;12.77;7.20;;;;;;;;;;5013014;28;20428;-65
2021/12/04 07:15:25;;;;;;;9.85;5.97;;;;;;;;;;5012846;28;20383;-66
2021/12/04 07:17:52;;;;;;;10.20;5.93;;;;;;;;;;5013089;28;20049;-66
2021/12/04 07:20:19;;;;;;;6.47;5.45;;;;;;;;;;5015178;28;20053;-66
2021/12/04 07:22:46;;;;;;;12.18;6.13;;;;;;;;;;5032580;28;20045;-65
2021/12/04 07:25:12;;;;;;;8.80;5.07;;;;;;;;;;5031429;28;20500;-66
2021/12/04 07:27:39;;;;;;;11.60;5.03;;;;;;;;;;5032491;28;20053;-66
2021/12/04 07:30:06;;;;;;;6.38;4.65;;;;;;;;;;5032750;28;20107;-66
2021/12/04 07:32:33;;;;;;;7.18;4.82;;;;;;;;;;5032685;28;20107;-65
2021/12/04 07:35:00;;;;;;;7.18;4.15;;;;;;;;;;5023946;28;20050;-65
2021/12/04 07:37:26;;;;;;;10.00;5.30;;;;;;;;;;5012784;28;20046;-65
2021/12/04 07:39:53;;;;;;;9.80;5.13;;;;;;;;;;5012605;28;20050;-65
2021/12/04 07:42:19;;;;;;;6.97;4.15;;;;;;;;;;5012800;28;20053;-65
2021/12/04 07:44:46;;;;;;;9.82;5.30;;;;;;;;;;5012288;28;20054;-65
2021/12/04 07:47:13;;;;;;;6.88;4.78;;;;;;;;;;5012516;28;20049;-65
2021/12/04 07:49:39;;;;;;;6.97;3.97;;;;;;;;;;5010162;28;20053;-65
2021/12/04 07:52:07;;;;;;;9.23;4.40;;;;;;;;;;5010468;28;20058;-65
2021/12/04 07:54:34;;;;;;;7.47;4.30;;;;;;;;;;5010442;28;20124;-65
2021/12/04 07:57:01;;;;;;;6.32;4.25;;;;;;;;;;5010331;28;20116;-65
2021/12/04 07:59:29;;;;;;;5.90;3.90;;;;;;;;;;5009063;28;20112;-65
2021/12/04 08:01:57;;;;;;;7.10;4.72;;;;;;;;;;5009806;28;20085;-65
2021/12/04 08:04:25;;;;;;;9.15;5.10;;;;;;;;;;5028078;28;20118;-65
2021/12/04 08:06:52;;;;;;;8.35;5.25;;;;;;;;;;5028560;28;20045;-65
2021/12/04 08:09:19;;;;;;;7.10;4.75;;;;;;;;;;5030182;28;20049;-65
2021/12/04 08:11:49;;;;;;;5.75;4.50;;;;;;;;;;5029865;28;20558;-65
2021/12/04 08:14:17;;;;;;;5.72;3.70;;;;;;;;;;5029768;28;20045;-65
2021/12/04 08:16:44;;;;;;;5.70;4.00;;;;;;;;;;5026661;28;20046;-65
2021/12/04 08:19:11;;;;;;;7.28;4.85;;;;;;;;;;5009879;28;20604;-65
2021/12/04 08:21:38;;;;;;;7.05;4.97;;;;;;;;;;5009941;28;20049;-66
2021/12/04 08:24:06;;;;;;;5.75;4.55;;;;;;;;;;5009981;28;20061;-65
2021/12/04 08:26:37;;;;;;;5.93;4.47;;;;;;;;;;5010047;28;20746;-64
2021/12/04 08:29:04;;;;;;;6.10;4.20;;;;;;;;;;5009394;28;20050;-64
2021/12/04 08:31:31;;;;;;;5.32;3.40;;;;;;;;;;5020452;28;20049;-64
2021/12/04 08:33:58;;;;;;;5.72;3.33;;;;;;;;;;5014269;28;20065;-66
2021/12/04 08:36:25;;;;;;;3.75;2.92;;;;;;;;;;5005977;28;20053;-66
2021/12/04 08:38:52;;;;;;;3.20;2.22;;;;;;;;;;5019446;28;20049;-66
2021/12/04 08:41:20;;;;;;;3.35;2.63;;;;;;;;;;5020400;28;20107;-65
2021/12/04 08:43:47;;;;;;;2.55;1.80;;;;;;;;;;5017212;28;20100;-66
2021/12/04 08:46:14;;;;;;;2.70;2.15;;;;;;;;;;5020123;28;20061;-66
2021/12/04 08:48:41;;;;;;;3.47;2.20;;;;;;;;;;5020899;28;20080;-65
2021/12/04 08:51:07;;;;;;;3.03;2.10;;;;;;;;;;5015224;28;20099;-66
2021/12/04 08:53:34;;;;;;;4.10;1.92;;;;;;;;;;5018607;28;20497;-65
2021/12/04 08:56:01;;;;;;;4.47;2.00;;;;;;;;;;5022272;28;20428;-64
2021/12/04 08:58:27;;;;;;;2.95;2.30;;;;;;;;;;5021128;28;20100;-65
2021/12/04 09:01:00;;;;;;;3.63;1.58;;;;;;;;;;5015664;28;20077;-64
2021/12/04 09:03:33;;;;;;;1.65;1.40;;;;;;;;;;5009725;28;20054;-69
2021/12/04 09:05:59;;;;;;;2.35;1.60;;;;;;;;;;5023334;28;20049;-69
2021/12/04 09:08:27;;;;;;;2.85;1.40;;;;;;;;;;5022107;28;20057;-69
2021/12/04 09:10:58;;;;;;;1.65;1.25;;;;;;;;;;5018119;28;20076;-66
2021/12/04 09:13:28;;;;;;;1.45;1.10;;;;;;;;;;5023136;28;20140;-65
2021/12/04 09:15:57;;;;;;;1.67;1.30;;;;;;;;;;5017407;28;20552;-66
2021/12/04 09:18:25;;;;;;;1.83;1.27;;;;;;;;;;5022806;28;20112;-66
2021/12/04 09:20:56;;;;;;;3.13;1.30;;;;;;;;;;5023933;28;20584;-66
2021/12/04 09:23:25;;;;;;;2.63;1.33;;;;;;;;;;5025346;28;20045;-70
2021/12/04 09:25:56;;;;;;;1.10;0.80;;;;;;;;;;5025468;28;20050;-66
2021/12/04 09:28:26;;;;;;;0.90;0.70;;;;;;;;;;5016457;28;20045;-65
2021/12/04 10:01:09;;;;;;;1.45;1.10;;;;;;;;;;5022126;28;20451;-64
2021/12/04 10:34:41;;;;;;;1.40;1.20;;;;;;;;;;4957435;28;20051;-65
2021/12/04 10:37:12;;;;;;;2.25;1.48;;;;;;;;;;4959745;28;20494;-66
2021/12/04 10:39:40;;;;;;;1.58;1.40;;;;;;;;;;4991499;28;20050;-66
2021/12/04 10:42:13;;;;;;;1.13;0.90;;;;;;;;;;5024562;28;20123;-67
2021/12/04 10:44:50;;;;;;;2.53;1.00;;;;;;;;;;5023417;28;20369;-68
2021/12/04 10:47:25;;;;;;;2.03;1.17;;;;;;;;;;5019938;28;20045;-67
2021/12/04 10:52:51;;;;;;;1.40;1.17;;;;;;;;;;5006870;28;20524;-71
2021/12/04 10:55:26;;;;;;;1.48;1.10;;;;;;;;;;5021931;28;20041;-71
2021/12/04 11:26:33;;;;;;;1.10;1.00;;;;;;;;;;5022991;28;20368;-68
2021/12/04 11:42:39;;;;;;;1.90;1.10;;;;;;;;;;5022362;28;20053;-65
2021/12/04 11:45:15;;;;;;;2.47;1.30;;;;;;;;;;5025716;28;20373;-64
2021/12/04 11:47:45;;;;;;;2.03;1.35;;;;;;;;;;5017710;28;20038;-65
2021/12/04 11:50:24;;;;;;;3.85;1.33;;;;;;;;;;5023896;28;20496;-65
2021/12/04 11:52:55;;;;;;;2.33;1.10;;;;;;;;;;5023076;28;20119;-65
2021/12/04 11:55:23;;;;;;;1.30;1.10;;;;;;;;;;5021314;28;20099;-68
2021/12/04 11:57:51;;;;;;;1.48;0.85;;;;;;;;;;5021848;28;20045;-68
2021/12/04 12:00:25;;;;;;;1.13;0.90;;;;;;;;;;5019343;28;20100;-66
2021/12/04 12:03:04;;;;;;;0.88;0.60;;;;;;;;;;5022670;28;20053;-66
2021/12/04 12:05:31;;;;;;;1.13;0.90;;;;;;;;;;5016385;28;20057;-68
2021/12/04 12:07:58;;;;;;;0.45;0.45;;;;;;;;;;5018945;28;20049;-67
2021/12/04 12:10:27;;;;;;;0.70;0.70;;;;;;;;;;5020608;28;20045;-70
2021/12/04 12:13:04;;;;;;;0.88;0.80;;;;;;;;;;5019453;28;20092;-68
2021/12/04 12:15:35;;;;;;;1.05;0.95;;;;;;;;;;5019558;28;20091;-64
2021/12/04 12:18:13;;;;;;;3.03;1.00;;;;;;;;;;5023996;28;20103;-63
2021/12/04 12:20:44;;;;;;;2.95;1.20;;;;;;;;;;5019639;28;20045;-67
2021/12/04 12:23:13;;;;;;;3.05;0.60;;;;;;;;;;5022085;28;20063;-66
2021/12/04 12:37:24;;;;;;;2.85;0.73;;;;;;;;;;5021883;28;20483;-64
2021/12/04 12:40:01;;;;;;;0.88;0.60;;;;;;;;;;5019321;28;20084;-62
2021/12/04 12:42:33;;;;;;;0.82;0.40;;;;;;;;;;5021522;28;20053;-64
2021/12/04 12:45:29;;;;;;;0.40;0.30;;;;;;;;;;5019428;28;20111;-64
2021/12/04 12:48:05;;;;;;;1.33;0.30;;;;;;;;;;5019658;28;20338;-65
2021/12/04 12:50:43;;;;;;;0.22;0.22;;;;;;;;;;5019284;28;20103;-64
2021/12/04 12:53:16;;;;;;;1.42;0.52;;;;;;;;;;5020638;28;20049;-64
2021/12/04 12:55:46;;;;;;;0.60;0.60;;;;;;;;;;5019285;28;20049;-64
2021/12/04 12:58:24;;;;;;;0.85;0.45;;;;;;;;;;5017301;28;20408;-63
2021/12/04 13:12:10;;;;;;;1.52;0.93;;;;;;;;;;5018342;28;20046;-64
2021/12/04 13:14:53;;;;;;;1.33;0.43;;;;;;;;;;5018908;28;20423;-66
2021/12/04 13:17:23;;;;;;;2.08;0.93;;;;;;;;;;5017282;28;20052;-65
2021/12/04 13:19:53;;;;;;;8.07;1.40;;;;;;;;;;5020273;28;20047;-64
2021/12/04 13:22:26;;;;;;;0.80;0.73;;;;;;;;;;5017773;28;20051;-63
2021/12/04 13:24:54;;;;;;;1.30;0.47;;;;;;;;;;5013768;28;20053;-64
2021/12/04 13:29:58;;;;;;;0.77;0.30;;;;;;;;;;5021382;28;20103;-65
2021/12/04 13:32:32;;;;;;;1.20;0.65;;;;;;;;;;5018056;28;20056;-64
2021/12/04 13:35:14;;;;;;;2.30;0.57;;;;;;;;;;5021183;28;20045;-64
2021/12/04 13:37:41;;;;;;;2.90;0.40;;;;;;;;;;5021719;28;20050;-64
2021/12/04 13:40:10;;;;;;;0.47;0.30;;;;;;;;;;5023617;28;20170;-64
2021/12/04 13:42:38;;;;;;;0.38;0.30;;;;;;;;;;5023257;28;20045;-64
2021/12/04 13:45:08;;;;;;;0.50;0.40;;;;;;;;;;5020173;28;20049;-64
2021/12/04 13:47:36;;;;;;;0.22;0.20;;;;;;;;;;5023017;28;20077;-64
2021/12/04 13:50:20;;;;;;;0.93;0.38;;;;;;;;;;5022136;28;20103;-64
2021/12/04 13:52:47;;;;;;;1.15;0.38;;;;;;;;;;5020778;28;20115;-65
2021/12/04 13:55:14;;;;;;;0.75;0.63;;;;;;;;;;5020329;28;20466;-64
2021/12/04 13:57:42;;;;;;;0.50;0.50;;;;;;;;;;5024533;28;20520;-65
2021/12/04 14:00:11;;;;;;;0.65;0.50;;;;;;;;;;5021708;28;20111;-64
2021/12/04 14:02:37;;;;;;;1.65;0.70;;;;;;;;;;5023121;28;20056;-63
2021/12/04 14:05:07;;;;;;;0.93;0.70;;;;;;;;;;5022698;28;20041;-63
2021/12/04 14:07:34;;;;;;;0.75;0.68;;;;;;;;;;5023536;28;20045;-64
2021/12/04 14:10:15;;;;;;;0.90;0.63;;;;;;;;;;5020834;28;20100;-64
2021/12/04 14:12:42;;;;;;;1.90;1.38;;;;;;;;;;5020475;28;20184;-65
2021/12/04 14:15:10;;;;;;;3.38;1.90;;;;;;;;;;5012261;28;20481;-64
2021/12/04 14:17:37;;;;;;;2.63;1.85;;;;;;;;;;5020090;28;20046;-65
2021/12/04 14:20:05;;;;;;;2.50;1.25;;;;;;;;;;5023715;28;20046;-63
2021/12/04 14:22:31;;;;;;;1.25;0.85;;;;;;;;;;5022208;28;20111;-64
2021/12/04 14:25:01;;;;;;;5.30;0.98;;;;;;;;;;5023438;28;20053;-65
2021/12/04 14:27:30;;;;;;;0.85;0.65;;;;;;;;;;5020410;28;20089;-63
2021/12/04 14:30:00;;;;;;;1.52;0.68;;;;;;;;;;5018758;28;20057;-65
2021/12/04 14:32:30;;;;;;;1.33;0.70;;;;;;;;;;5023963;28;20579;-65
2021/12/04 14:34:58;;;;;;;1.42;0.80;;;;;;;;;;5019469;28;20053;-65
2021/12/04 14:37:26;;;;;;;1.00;0.60;;;;;;;;;;5023409;28;20084;-64
2021/12/04 14:39:53;;;;;;;0.98;0.70;;;;;;;;;;5018922;28;20107;-65
2021/12/04 14:42:23;;;;;;;0.77;0.77;;;;;;;;;;5020956;28;20046;-65
2021/12/04 14:44:54;;;;;;;2.67;1.70;;;;;;;;;;5019051;28;20092;-65
2021/12/04 14:47:21;;;;;;;4.00;2.13;;;;;;;;;;5022404;28;20415;-65
2021/12/04 14:49:50;;;;;;;3.45;1.60;;;;;;;;;;5023038;28;20099;-65
2021/12/04 14:52:20;;;;;;;3.10;1.20;;;;;;;;;;5021036;28;20053;-65
2021/12/04 14:54:47;;;;;;;4.10;1.80;;;;;;;;;;5017515;28;20616;-65
2021/12/04 14:57:22;;;;;;;3.90;2.35;;;;;;;;;;5021783;28;20053;-65
2021/12/04 15:00:06;;;;;;;2.85;1.23;;;;;;;;;;5022532;28;20241;-65
2021/12/04 15:02:33;;;;;;;2.50;1.10;;;;;;;;;;5016784;28;20566;-65
2021/12/04 15:05:00;;;;;;;1.33;1.02;;;;;;;;;;5017998;28;20052;-65
2021/12/04 15:07:31;;;;;;;4.55;1.30;;;;;;;;;;5022169;28;20049;-65
2021/12/04 15:09:57;;;;;;;1.13;0.80;;;;;;;;;;5020971;28;20054;-64
2021/12/04 15:12:29;;;;;;;2.80;1.40;;;;;;;;;;5022442;28;20049;-65
2021/12/04 15:14:59;;;;;;;3.53;1.38;;;;;;;;;;5022263;28;20049;-65
2021/12/04 15:17:26;;;;;;;1.13;0.90;;;;;;;;;;5020866;28;20042;-64
2021/12/04 15:19:54;;;;;;;2.38;1.48;;;;;;;;;;5022522;28;20492;-65
2021/12/04 15:22:28;;;;;;;3.05;1.50;;;;;;;;;;5020239;28;20108;-65
2021/12/04 15:24:56;;;;;;;2.45;1.42;;;;;;;;;;5020181;28;20516;-64
2021/12/04 15:27:24;;;;;;;5.45;2.80;;;;;;;;;;5019336;28;20570;-63
2021/12/04 15:29:53;;;;;;;2.10;1.60;;;;;;;;;;5017650;28;20111;-65
2021/12/04 15:32:25;;;;;;;4.45;2.80;;;;;;;;;;5021874;28;20318;-64
2021/12/04 15:35:02;;;;;;;2.50;1.90;;;;;;;;;;5020376;28;20050;-65
2021/12/04 15:37:41;;;;;;;2.22;1.60;;;;;;;;;;5017680;28;20053;-64
2021/12/04 15:40:23;;;;;;;1.48;1.38;;;;;;;;;;5021285;28;20049;-64
2021/12/04 15:42:58;;;;;;;3.72;1.50;;;;;;;;;;5021061;28;20096;-64
2021/12/04 15:53:31;;;;;;;2.47;1.55;;;;;;;;;;5020359;28;20057;-64
2021/12/04 15:56:00;;;;;;;2.80;1.50;;;;;;;;;;5020438;28;20207;-65
2021/12/04 15:58:35;;;;;;;1.92;1.33;;;;;;;;;;5019670;28;20045;-64
2021/12/04 16:01:07;;;;;;;3.60;1.80;;;;;;;;;;5018604;28;20049;-64
2021/12/04 16:03:41;;;;;;;1.98;1.77;;;;;;;;;;5021698;28;20408;-64
2021/12/04 16:06:11;;;;;;;2.05;1.67;;;;;;;;;;5019401;28;20296;-64
2021/12/04 16:08:40;;;;;;;2.83;2.40;;;;;;;;;;5016606;28;20052;-68
2021/12/04 16:11:13;;;;;;;2.55;2.00;;;;;;;;;;5006903;28;20058;-66
2021/12/04 16:13:42;;;;;;;2.40;1.40;;;;;;;;;;5015070;28;20046;-66
2021/12/04 16:16:19;;;;;;;1.95;1.60;;;;;;;;;;5010275;28;20108;-68
2021/12/04 16:18:46;;;;;;;2.17;1.52;;;;;;;;;;5012293;28;20053;-69
2021/12/04 16:21:14;;;;;;;3.72;2.47;;;;;;;;;;5015565;28;20049;-68
2021/12/04 16:23:41;;;;;;;2.75;2.15;;;;;;;;;;5021683;28;20060;-65
2021/12/04 16:26:17;;;;;;;3.33;2.50;;;;;;;;;;5016807;28;20053;-64
2021/12/04 16:29:01;;;;;;;3.67;2.30;;;;;;;;;;5017312;28;20447;-65
2021/12/04 16:39:34;;;;;;;2.83;2.22;;;;;;;;;;5021258;28;20422;-66
2021/12/04 16:42:01;;;;;;;5.30;2.60;;;;;;;;;;5022751;28;20107;-64
2021/12/04 16:44:27;;;;;;;3.95;2.78;;;;;;;;;;5021175;28;20072;-65
2021/12/04 16:46:54;;;;;;;3.30;1.77;;;;;;;;;;5022134;22;20105;-63
2021/12/04 16:49:22;;;;;;;3.45;2.20;;;;;;;;;;4973906;28;20039;-64
2021/12/04 16:57:24;;;;;;;2.67;1.35;;;;;;;;;;4971631;28;20513;-63
2021/12/04 16:59:53;;;;;;;2.92;1.45;;;;;;;;;;4971236;28;20106;-64
2021/12/04 17:02:22;;;;;;;4.05;1.60;;;;;;;;;;4970808;28;20121;-64
2021/12/04 17:04:50;;;;;;;1.65;1.45;;;;;;;;;;4972458;28;20529;-63
2021/12/04 17:07:20;;;;;;;3.35;2.05;;;;;;;;;;4977277;28;20050;-62
2021/12/04 17:09:48;;;;;;;2.22;1.38;;;;;;;;;;4979589;28;20497;-63
2021/12/04 17:12:14;;;;;;;2.25;1.45;;;;;;;;;;4974130;28;20058;-63
2021/12/04 17:14:41;;;;;;;1.92;1.45;;;;;;;;;;4971535;28;20566;-63
2021/12/04 17:17:12;;;;;;;2.15;1.50;;;;;;;;;;4971328;28;20109;-64
2021/12/04 17:19:40;;;;;;;2.58;1.33;;;;;;;;;;4971802;28;20430;-63
2021/12/04 17:22:07;;;;;;;2.58;1.35;;;;;;;;;;4972375;28;20514;-63
2021/12/04 17:24:34;;;;;;;1.25;1.15;;;;;;;;;;4959335;28;20055;-63
2021/12/04 17:27:03;;;;;;;2.25;1.38;;;;;;;;;;4972306;28;20572;-63
2021/12/04 17:29:31;;;;;;;2.80;1.70;;;;;;;;;;4971041;28;20046;-63
2021/12/04 17:31:58;;;;;;;2.75;1.50;;;;;;;;;;4955083;28;20101;-63
2021/12/04 17:34:25;;;;;;;3.58;1.90;;;;;;;;;;4972342;28;20043;-63
2021/12/04 17:36:51;;;;;;;3.38;2.47;;;;;;;;;;4970645;28;20098;-63
2021/12/04 17:39:19;;;;;;;2.42;2.15;;;;;;;;;;4971826;28;20497;-63
2021/12/04 17:41:46;;;;;;;5.75;2.20;;;;;;;;;;4972359;28;20046;-63
2021/12/04 17:44:17;;;;;;;4.38;2.55;;;;;;;;;;4971893;28;20105;-63
2021/12/04 17:46:43;;;;;;;4.57;1.73;;;;;;;;;;4979399;28;20050;-63
2021/12/04 17:49:11;;;;;;;2.65;1.88;;;;;;;;;;4970566;28;20457;-63
2021/12/04 17:51:39;;;;;;;4.13;2.42;;;;;;;;;;4971752;28;20055;-63
2021/12/04 17:54:09;;;;;;;3.80;2.53;;;;;;;;;;4972636;28;20106;-63
2021/12/04 17:56:37;;;;;;;3.63;2.20;;;;;;;;;;4957481;28;20058;-63
2021/12/04 17:59:04;;;;;;;4.05;2.15;;;;;;;;;;4971782;28;20498;-64
2021/12/04 18:01:42;;;;;;;1.98;1.67;;;;;;;;;;4971814;28;20055;-64
2021/12/04 18:04:09;;;;;;;1.92;1.23;;;;;;;;;;4970444;28;20050;-63
2021/12/04 18:06:37;;;;;;;2.45;1.60;;;;;;;;;;4971619;28;20090;-62
2021/12/04 18:09:07;;;;;;;1.50;1.08;;;;;;;;;;4974562;28;20101;-63
2021/12/04 18:11:37;;;;;;;1.38;1.00;;;;;;;;;;4970580;28;20043;-63
2021/12/04 18:14:07;;;;;;;1.27;0.90;;;;;;;;;;4971356;28;20199;-63
2021/12/04 18:16:37;;;;;;;0.40;0.40;;;;;;;;;;4970871;28;20094;-63
2021/12/04 18:19:04;;;;;;;1.25;0.90;;;;;;;;;;4970973;28;20134;-63
2021/12/04 18:21:33;;;;;;;1.38;1.20;;;;;;;;;;4961007;28;20461;-63
2021/12/04 18:24:00;;;;;;;2.40;1.42;;;;;;;;;;4969812;28;21048;-62
2021/12/04 18:26:27;;;;;;;5.90;2.10;;;;;;;;;;4971512;28;20055;-62
2021/12/04 18:28:54;;;;;;;2.40;1.30;;;;;;;;;;4970989;28;20043;-63
2021/12/04 18:31:21;;;;;;;2.45;1.75;;;;;;;;;;4973322;28;20051;-63